Time;durP1;ratioP1;P1;durP2;ratioP2;P2;SDS_P1;SDS_P2;PMS_P1;PMS_P2;Temp;Humidity;BMP_temperature;BMP_pressure;BME280_temperature;BME280_humidity;BME280_pressure;Samples;Min_cycle;Max_cycle;Signal;HPM_P1;HPM_P2
2022/06/19 00:01:36;;;;;;;;;;;;;;;15.86;73.08;96011.91;6245963;28;20304;-67
2022/06/19 00:04:40;;;;;;;;;;;;;;;15.76;73.18;96003.19;6245388;28;20300;-67
2022/06/19 00:07:42;;;;;;;;;;;;;;;15.83;73.39;96020.16;6245745;28;19925;-67
2022/06/19 00:10:43;;;;;;;;;;;;;;;15.90;73.17;96021.22;6246332;28;19925;-67
2022/06/19 00:13:50;;;;;;;;;;;;;;;15.91;73.03;96017.59;6245517;28;19921;-68
2022/06/19 00:16:51;;;;;;;;;;;;;;;15.93;72.82;96020.91;6245315;28;19920;-67
2022/06/19 00:19:54;;;;;;;;;;;;;;;15.89;72.83;96014.25;6245341;28;19921;-67
2022/06/19 00:22:58;;;;;;;;;;;;;;;15.95;72.81;96018.94;6248410;28;19921;-66
2022/06/19 00:26:02;;;;;;;;;;;;;;;15.96;72.65;96020.59;6249910;28;20019;-67
2022/06/19 00:29:05;;;;;;;;;;;;;;;16.06;72.49;96021.34;6250443;28;19947;-67
2022/06/19 00:32:09;;;;;;;;;;;;;;;16.19;72.19;96028.06;6249835;28;19964;-66
2022/06/19 00:35:10;;;;;;;;;;;;;;;16.29;71.75;96034.13;6248275;28;19928;-67
2022/06/19 00:38:11;;;;;;;;;;;;;;;16.28;71.86;96035.13;6249572;28;19921;-67
2022/06/19 00:41:19;;;;;;;;;;;;;;;16.28;71.90;96035.13;6249790;28;20419;-67
2022/06/19 00:44:26;;;;;;;;;;;;;;;16.34;71.57;96034.50;6249594;28;20030;-66
2022/06/19 00:47:38;;;;;;;;;;;;;;;16.38;71.37;96035.84;6249867;28;19917;-67
2022/06/19 00:50:40;;;;;;;;;;;;;;;16.39;71.25;96038.34;6249336;28;19920;-66
2022/06/19 00:53:46;;;;;;;;;;;;;;;16.42;71.16;96041.66;6249001;28;20459;-67
2022/06/19 00:56:48;;;;;;;;;;;;;;;16.42;71.11;96039.84;6249701;28;19921;-67
2022/06/19 00:59:53;;;;;;;;;;;;;;;16.51;70.88;96046.88;6249297;28;20273;-67
2022/06/19 01:03:03;;;;;;;;;;;;;;;16.44;70.71;96056.44;6248875;28;20019;-67
2022/06/19 01:06:05;;;;;;;;;;;;;;;16.34;71.13;96056.56;6249273;28;19921;-67
2022/06/19 01:09:09;;;;;;;;;;;;;;;16.40;71.38;96060.41;6248820;28;20376;-67
2022/06/19 01:12:15;;;;;;;;;;;;;;;16.55;70.83;96052.69;6248807;28;20055;-67
2022/06/19 01:15:19;;;;;;;;;;;;;;;16.55;70.83;96058.84;6248678;28;19921;-67
2022/06/19 01:18:21;;;;;;;;;;;;;;;16.64;70.73;96056.25;6248802;28;19921;-67
2022/06/19 01:21:22;;;;;;;;;;;;;;;16.73;70.06;96055.28;6248998;28;19921;-67
2022/06/19 01:24:29;;;;;;;;;;;;;;;16.83;69.43;96058.72;6248915;28;19925;-67
2022/06/19 01:30:54;;;;;;;;;;;;;;;16.88;69.07;96064.38;6248434;28;20016;-67
2022/06/19 01:34:28;;;;;;;;;;;;;;;16.95;69.01;96062.75;6246610;28;20408;-68
2022/06/19 01:37:30;;;;;;;;;;;;;;;17.02;68.77;96066.44;6247352;28;19921;-67
2022/06/19 01:40:33;;;;;;;;;;;;;;;17.19;68.35;96064.69;6248852;28;19921;-67
2022/06/19 01:43:36;;;;;;;;;;;;;;;17.23;67.62;96067.84;6248225;28;20304;-66
2022/06/19 01:46:39;;;;;;;;;;;;;;;17.24;67.84;96072.19;6248052;28;19921;-67
2022/06/19 01:49:47;;;;;;;;;;;;;;;17.23;67.68;96067.84;6247987;28;19925;-67
2022/06/19 01:52:52;;;;;;;;;;;;;;;17.25;67.99;96063.22;6248289;28;19921;-67
2022/06/19 01:55:57;;;;;;;;;;;;;;;17.35;67.68;96071.88;6247583;28;20396;-66
2022/06/19 01:59:05;;;;;;;;;;;;;;;17.44;67.13;96070.94;6247671;28;20307;-67
2022/06/19 02:02:09;;;;;;;;;;;;;;;17.52;66.84;96072.75;6247673;28;20252;-67
2022/06/19 02:05:10;;;;;;;;;;;;;;;17.59;66.91;96067.66;6247621;28;20280;-67
2022/06/19 02:08:17;;;;;;;;;;;;;;;17.63;66.47;96053.00;6248135;28;20098;-67
2022/06/19 02:11:18;;;;;;;;;;;;;;;17.76;65.64;96064.03;6247296;28;19924;-68
2022/06/19 02:14:20;;;;;;;;;;;;;;;17.86;65.38;96063.88;6247886;28;19921;-68
2022/06/19 02:17:31;;;;;;;;;;;;;;;18.01;64.48;96066.75;6247217;28;19916;-68
2022/06/19 02:20:35;;;;;;;;;;;;;;;18.05;64.24;96068.91;6247066;28;20380;-68
2022/06/19 02:23:40;;;;;;;;;;;;;;;18.08;64.26;96067.75;6247120;28;20399;-68
2022/06/19 02:26:42;;;;;;;;;;;;;;;18.28;63.79;96069.06;6246913;28;20411;-68
2022/06/19 02:29:43;;;;;;;;;;;;;;;18.45;62.34;96071.72;6247243;28;20075;-69
2022/06/19 02:32:49;;;;;;;;;;;;;;;18.46;61.90;96066.25;6246878;28;20293;-67
2022/06/19 02:35:55;;;;;;;;;;;;;;;18.55;61.55;96065.22;6246444;28;19921;-68
2022/06/19 02:38:58;;;;;;;;;;;;;;;18.37;61.95;96068.09;6246940;28;20311;-66
2022/06/19 02:41:59;;;;;;;;;;;;;;;18.40;62.11;96066.91;6246791;28;19921;-67
2022/06/19 02:45:02;;;;;;;;;;;;;;;18.70;61.46;96068.03;6246186;28;20406;-67
2022/06/19 02:48:05;;;;;;;;;;;;;;;18.68;61.70;96070.00;6247100;28;19928;-67
2022/06/19 02:51:08;;;;;;;;;;;;;;;18.67;61.71;96063.03;6246985;28;19972;-67
2022/06/19 02:54:10;;;;;;;;;;;;;;;18.78;61.40;96060.03;6246353;28;19927;-67
2022/06/19 02:57:11;;;;;;;;;;;;;;;18.97;60.67;96055.34;6246688;28;20399;-67
2022/06/19 03:00:15;;;;;;;;;;;;;;;19.14;60.10;96058.78;6246764;28;19928;-67
2022/06/19 03:03:28;;;;;;;;;;;;;;;19.14;59.71;96054.28;6246392;28;19991;-67
2022/06/19 03:06:34;;;;;;;;;;;;;;;19.14;60.26;96051.63;6246661;28;19928;-67
2022/06/19 03:09:35;;;;;;;;;;;;;;;19.14;60.23;96054.28;6246573;28;19921;-68
2022/06/19 03:12:40;;;;;;;;;;;;;;;19.21;60.17;96051.75;6246279;28;20300;-67
2022/06/19 03:15:41;;;;;;;;;;;;;;;19.24;60.49;96049.56;6246142;28;19921;-68
2022/06/19 03:18:42;;;;;;;;;;;;;;;19.31;59.90;96055.03;6246746;28;19927;-67
2022/06/19 03:21:43;;;;;;;;;;;;;;;19.44;59.39;96065.13;6245718;28;19921;-67
2022/06/19 03:24:44;;;;;;;;;;;;;;;19.52;59.29;96062.44;6246056;28;19927;-68
2022/06/19 03:27:46;;;;;;;;;;;;;;;19.60;59.00;96067.72;6246356;28;19921;-68
2022/06/19 03:30:50;;;;;;;;;;;;;;;19.71;58.18;96062.03;6246247;28;19928;-67
2022/06/19 03:33:52;;;;;;;;;;;;;;;19.83;57.90;96072.28;6245599;28;19921;-67
2022/06/19 03:36:56;;;;;;;;;;;;;;;19.92;58.01;96068.56;6245742;28;20419;-67
2022/06/19 03:40:02;;;;;;;;;;;;;;;19.98;57.91;96077.69;6245709;28;19921;-68
2022/06/19 03:43:04;;;;;;;;;;;;;;;20.22;56.34;96074.03;6246194;28;20341;-67
2022/06/19 03:46:12;;;;;;;;;;;;;;;20.19;56.75;96084.06;6245785;28;19927;-68
2022/06/19 03:49:13;;;;;;;;;;;;;;;20.18;56.57;96073.53;6245759;28;20299;-68
2022/06/19 03:52:17;;;;;;;;;;;;;;;20.16;56.71;96075.59;6244601;28;19921;-67
2022/06/19 03:55:18;;;;;;;;;;;;;;;20.26;56.11;96069.97;6244817;28;20320;-68
2022/06/19 03:58:21;;;;;;;;;;;;;;;20.38;55.64;96068.53;6249127;28;19921;-67
2022/06/19 04:01:24;;;;;;;;;;;;;;;20.70;54.50;96077.31;6250275;28;19931;-68
2022/06/19 04:04:30;;;;;;;;;;;;;;;20.58;54.92;96077.75;6250125;28;19925;-68
2022/06/19 04:07:41;;;;;;;;;;;;;;;20.49;55.53;96076.13;6250732;28;19921;-68
2022/06/19 04:10:46;;;;;;;;;;;;;;;20.57;55.30;96073.41;6250232;28;20019;-68
2022/06/19 04:13:48;;;;;;;;;;;;;;;20.69;54.99;96071.13;6250145;28;19920;-67
2022/06/19 04:16:51;;;;;;;;;;;;;;;20.92;54.03;96075.56;6250465;28;19946;-68
2022/06/19 04:19:52;;;;;;;;;;;;;;;20.93;54.10;96078.06;6250323;28;19927;-67
2022/06/19 04:22:57;;;;;;;;;;;;;;;20.88;54.38;96068.94;6248844;28;19920;-67
2022/06/19 04:26:00;;;;;;;;;;;;;;;20.99;54.41;96068.50;6249765;28;19935;-67
2022/06/19 04:29:04;;;;;;;;;;;;;;;21.21;53.82;96072.09;6249627;28;19932;-68
2022/06/19 04:32:05;;;;;;;;;;;;;;;21.36;53.67;96072.06;6249409;28;19967;-68
2022/06/19 04:35:07;;;;;;;;;;;;;;;21.64;53.07;96065.03;6249531;28;19921;-68
2022/06/19 04:38:10;;;;;;;;;;;;;;;22.15;51.29;96072.16;6249626;28;20011;-67
2022/06/19 04:41:15;;;;;;;;;;;;;;;22.34;51.01;96074.25;6249780;28;20350;-68
2022/06/19 04:44:17;;;;;;;;;;;;;;;22.54;50.07;96068.22;6249852;28;19978;-67
2022/06/19 04:47:20;;;;;;;;;;;;;;;22.97;49.51;96076.19;6249865;28;20293;-68
2022/06/19 04:50:25;;;;;;;;;;;;;;;25.29;43.70;96076.75;6249455;28;19970;-68
2022/06/19 04:53:29;;;;;;;;;;;;;;;27.48;39.46;96081.75;6249102;28;19928;-67
2022/06/19 04:56:33;;;;;;;;;;;;;;;28.91;36.83;96088.31;6249598;28;19921;-67
2022/06/19 04:59:34;;;;;;;;;;;;;;;30.69;34.97;96095.84;6248647;28;19964;-68
2022/06/19 05:02:36;;;;;;;;;;;;;;;30.54;35.42;96087.41;6248863;28;19920;-67
2022/06/19 05:05:41;;;;;;;;;;;;;;;31.54;33.80;96093.94;6248917;28;19921;-67
2022/06/19 05:08:42;;;;;;;;;;;;;;;34.76;30.70;96109.22;6248161;28;20391;-66
2022/06/19 05:11:45;;;;;;;;;;;;;;;38.64;25.74;96108.66;6248546;28;19932;-67
2022/06/19 05:14:46;;;;;;;;;;;;;;;41.60;23.95;96109.31;6248551;28;20007;-67
2022/06/19 05:17:50;;;;;;;;;;;;;;;42.86;19.23;96110.66;6247402;28;19921;-67
2022/06/19 05:20:57;;;;;;;;;;;;;;;40.86;20.16;96107.00;6248409;28;20008;-67
2022/06/19 05:23:59;;;;;;;;;;;;;;;37.38;24.24;96096.16;6249130;28;19921;-67
2022/06/19 05:27:01;;;;;;;;;;;;;;;37.39;24.24;96093.09;6248430;28;20399;-66
2022/06/19 05:30:05;;;;;;;;;;;;;;;37.59;24.92;96099.53;6248168;28;19928;-67
2022/06/19 05:33:06;;;;;;;;;;;;;;;38.32;23.52;96099.19;6248173;28;20047;-66
2022/06/19 05:36:12;;;;;;;;;;;;;;;39.22;22.17;96100.06;6247940;28;19921;-67
2022/06/19 05:39:18;;;;;;;;;;;;;;;37.95;23.12;96089.78;6248379;28;19928;-67
2022/06/19 05:42:22;;;;;;;;;;;;;;;36.44;23.87;96088.09;6248635;28;19921;-67
2022/06/19 05:45:25;;;;;;;;;;;;;;;34.51;24.91;96088.97;6247288;28;19927;-67
2022/06/19 05:48:26;;;;;;;;;;;;;;;32.10;27.04;96081.06;6247986;28;19965;-67
2022/06/19 05:51:30;;;;;;;;;;;;;;;29.73;30.50;96074.75;6248016;28;19920;-68
2022/06/19 05:54:35;;;;;;;;;;;;;;;28.72;31.96;96079.47;6247753;28;20380;-67
2022/06/19 05:57:38;;;;;;;;;;;;;;;27.72;33.34;96078.13;6248004;28;19924;-67
2022/06/19 06:00:42;;;;;;;;;;;;;;;27.37;34.01;96066.28;6247996;28;19921;-68
2022/06/19 06:03:45;;;;;;;;;;;;;;;27.10;34.33;96069.25;6248014;28;19921;-67
2022/06/19 06:06:47;;;;;;;;;;;;;;;26.88;34.88;96063.41;6246440;28;19921;-67
2022/06/19 06:09:48;;;;;;;;;;;;;;;26.64;35.35;96068.63;6247033;28;20307;-68
2022/06/19 06:12:51;;;;;;;;;;;;;;;26.54;35.29;96045.88;6247378;28;19928;-67
2022/06/19 06:15:55;;;;;;;;;;;;;;;27.90;33.82;96047.56;6246315;28;19920;-68
2022/06/19 06:18:56;;;;;;;;;;;;;;;31.45;29.17;96062.78;6246704;28;20300;-68
2022/06/19 06:21:59;;;;;;;;;;;;;;;34.94;25.73;96078.63;6247200;28;20011;-67
2022/06/19 06:25:00;;;;;;;;;;;;;;;37.82;22.75;96085.00;6247013;28;19945;-68
2022/06/19 06:28:01;;;;;;;;;;;;;;;40.08;20.99;96096.00;6247108;28;20427;-67
2022/06/19 06:31:03;;;;;;;;;;;;;;;39.46;21.09;96105.47;6246537;28;20312;-67
2022/06/19 06:34:04;;;;;;;;;;;;;;;37.16;21.75;96093.88;6246814;28;19936;-67
2022/06/19 06:37:15;;;;;;;;;;;;;;;34.87;23.87;96095.28;6246485;28;19921;-67
2022/06/19 06:40:19;;;;;;;;;;;;;;;35.08;22.52;96089.88;6246445;28;19986;-67
2022/06/19 06:43:27;;;;;;;;;;;;;;;34.03;23.96;96079.22;6246515;28;20370;-67
2022/06/19 06:46:30;;;;;;;;;;;;;;;36.74;20.90;96081.59;6246213;28;19921;-67
2022/06/19 06:49:31;;;;;;;;;;;;;;;40.88;18.32;96089.03;6246747;28;19920;-67
2022/06/19 06:52:34;;;;;;;;;;;;;;;43.57;16.77;96097.25;6246540;28;19921;-67
2022/06/19 06:55:40;;;;;;;;;;;;;;;44.30;15.06;96090.69;6246045;28;19921;-67
2022/06/19 06:58:43;;;;;;;;;;;;;;;45.59;14.69;96101.09;6246451;28;19943;-66
2022/06/19 07:01:47;;;;;;;;;;;;;;;46.54;13.79;96102.66;6246601;28;19981;-66
2022/06/19 07:04:53;;;;;;;;;;;;;;;45.16;14.63;96096.81;6245921;28;19920;-66
2022/06/19 07:08:00;;;;;;;;;;;;;;;41.30;16.97;96084.09;6245891;28;20007;-67
2022/06/19 07:11:05;;;;;;;;;;;;;;;38.04;19.18;96080.91;6245980;28;19925;-67
2022/06/19 07:14:08;;;;;;;;;;;;;;;36.63;19.70;96065.22;6246055;28;19921;-67
2022/06/19 07:17:14;;;;;;;;;;;;;;;34.97;21.73;96053.47;6245952;28;19924;-67
2022/06/19 07:20:18;;;;;;;;;;;;;;;38.22;19.34;96054.56;6245824;28;19921;-67
2022/06/19 07:23:21;;;;;;;;;;;;;;;42.24;15.90;96062.75;6245646;28;19921;-66
2022/06/19 07:26:24;;;;;;;;;;;;;;;46.16;12.98;96086.31;6245286;28;19921;-66
2022/06/19 07:29:29;;;;;;;;;;;;;;;47.60;10.91;96085.78;6246022;28;19921;-66
2022/06/19 07:32:30;;;;;;;;;;;;;;;45.09;12.47;96077.06;6251005;28;19931;-66
2022/06/19 07:35:34;;;;;;;;;;;;;;;41.04;15.51;96070.94;6254045;28;19928;-66
2022/06/19 07:38:39;;;;;;;;;;;;;;;35.87;20.28;96047.28;6253712;28;19921;-66
2022/06/19 07:41:48;;;;;;;;;;;;;;;32.94;23.83;96046.16;6254412;28;19925;-67
2022/06/19 07:44:52;;;;;;;;;;;;;;;32.31;24.88;96037.72;6254039;28;19921;-67
2022/06/19 07:51:12;;;;;;;;;;;;;;;32.17;25.45;96043.56;6253849;28;20179;-67
2022/06/19 07:54:18;;;;;;;;;;;;;;;32.89;24.39;96038.75;6253713;28;19921;-67
2022/06/19 07:57:19;;;;;;;;;;;;;;;32.42;24.37;96036.72;6254342;28;21287;-67
2022/06/19 08:00:22;;;;;;;;;;;;;;;31.49;25.23;96036.75;6253314;28;19928;-67
2022/06/19 08:03:24;;;;;;;;;;;;;;;30.33;25.89;96027.34;6253131;28;20019;-68
2022/06/19 08:06:29;;;;;;;;;;;;;;;30.05;26.28;96027.38;6253341;28;19921;-67
2022/06/19 08:09:33;;;;;;;;;;;;;;;30.28;26.27;96016.41;6253754;28;19925;-67
2022/06/19 08:12:43;;;;;;;;;;;;;;;29.91;26.73;96011.38;6253797;28;19921;-69
2022/06/19 08:15:51;;;;;;;;;;;;;;;29.94;26.20;96016.31;6253176;28;20300;-67
2022/06/19 08:18:54;;;;;;;;;;;;;;;30.06;25.88;96012.72;6253430;28;20379;-66
2022/06/19 08:21:58;;;;;;;;;;;;;;;30.04;25.39;96010.28;6253574;28;19920;-66
2022/06/19 08:25:01;;;;;;;;;;;;;;;30.01;25.22;96012.63;6253675;28;19921;-67
2022/06/19 08:28:04;;;;;;;;;;;;;;;30.55;24.45;96010.34;6253439;28;19921;-67
2022/06/19 08:31:08;;;;;;;;;;;;;;;31.00;23.80;96012.97;6253363;28;19924;-67
2022/06/19 08:34:12;;;;;;;;;;;;;;;31.13;23.24;96011.78;6253398;28;19920;-67
2022/06/19 08:37:16;;;;;;;;;;;;;;;30.92;23.54;96009.88;6253580;28;19988;-66
2022/06/19 08:40:20;;;;;;;;;;;;;;;31.89;22.27;96014.66;6253616;28;20296;-67
2022/06/19 08:43:40;;;;;;;;;;;;;;;33.80;20.33;96017.75;6251887;28;19925;-67
2022/06/19 08:47:09;;;;;;;;;;;;;;;35.25;18.60;96024.75;6249040;28;19920;-67
2022/06/19 08:50:10;;;;;;;;;;;;;;;35.48;18.35;96027.97;6240112;28;19921;-67
2022/06/19 08:53:21;;;;;;;;;;;;;;;36.15;17.69;96020.31;6248130;28;19921;-67
2022/06/19 08:56:31;;;;;;;;;;;;;;;37.11;16.78;96026.16;6250078;28;19928;-67
2022/06/19 08:59:35;;;;;;;;;;;;;;;36.13;17.45;96015.13;6248847;28;19925;-67
2022/06/19 09:02:42;;;;;;;;;;;;;;;34.91;18.73;96012.75;6250008;28;19927;-67
2022/06/19 09:06:04;;;;;;;;;;;;;;;33.80;19.45;96015.03;6249680;28;19932;-67
2022/06/19 09:09:07;;;;;;;;;;;;;;;33.31;19.52;96008.78;6248940;28;20307;-67
2022/06/19 09:12:09;;;;;;;;;;;;;;;33.40;20.17;96011.03;6248697;28;19928;-67
2022/06/19 09:15:12;;;;;;;;;;;;;;;33.73;20.51;96010.66;6249277;28;19929;-67
2022/06/19 09:18:26;;;;;;;;;;;;;;;34.75;20.11;96004.56;6248409;28;19921;-67
2022/06/19 09:21:33;;;;;;;;;;;;;;;35.68;19.40;96003.28;6248536;28;20316;-67
2022/06/19 09:24:51;;;;;;;;;;;;;;;36.64;18.75;96000.28;6248480;28;19927;-67
2022/06/19 09:27:55;;;;;;;;;;;;;;;37.51;18.23;96008.50;6248162;28;19921;-67
2022/06/19 09:30:58;;;;;;;;;;;;;;;37.52;17.70;96015.63;6248122;28;20293;-67
2022/06/19 09:34:04;;;;;;;;;;;;;;;36.67;17.46;96012.59;6247857;28;20007;-67
2022/06/19 09:37:14;;;;;;;;;;;;;;;37.08;17.36;96016.59;6248208;28;19927;-67
2022/06/19 09:40:29;;;;;;;;;;;;;;;38.46;16.42;96022.34;6248626;28;20019;-67
2022/06/19 09:43:39;;;;;;;;;;;;;;;39.92;15.51;96023.91;6248047;28;19947;-67
2022/06/19 09:46:50;;;;;;;;;;;;;;;40.08;14.85;96011.41;6248159;28;19921;-67
2022/06/19 09:50:06;;;;;;;;;;;;;;;40.67;15.03;96016.16;6247448;28;20023;-67
2022/06/19 09:53:13;;;;;;;;;;;;;;;41.36;14.33;96016.63;6247496;28;19928;-67
2022/06/19 09:56:30;;;;;;;;;;;;;;;41.40;14.26;96016.78;6247019;28;19921;-66
2022/06/19 09:59:37;;;;;;;;;;;;;;;41.77;13.98;96014.66;6246492;28;20406;-67
2022/06/19 10:02:50;;;;;;;;;;;;;;;42.85;13.73;96014.97;6247898;28;21007;-66
2022/06/19 10:05:55;;;;;;;;;;;;;;;43.17;12.31;96016.38;6247336;28;19921;-66
2022/06/19 10:09:14;;;;;;;;;;;;;;;42.64;12.27;96015.63;6247225;28;19921;-66
2022/06/19 10:12:23;;;;;;;;;;;;;;;42.12;12.46;96015.56;6247369;28;19921;-67
2022/06/19 10:15:31;;;;;;;;;;;;;;;40.04;13.31;95999.38;6247420;28;19936;-67
2022/06/19 10:18:34;;;;;;;;;;;;;;;37.23;14.97;95995.63;6247525;28;19928;-67
2022/06/19 10:25:08;;;;;;;;;;;;;;;34.58;17.44;96004.03;6247109;28;19920;-67
2022/06/19 10:28:10;;;;;;;;;;;;;;;35.74;18.04;96015.84;6247362;28;19916;-67
2022/06/19 10:31:11;;;;;;;;;;;;;;;35.17;21.27;96011.66;6247411;28;19972;-67
2022/06/19 10:34:33;;;;;;;;;;;;;;;34.28;23.22;96008.34;6246841;28;19920;-67
2022/06/19 10:38:01;;;;;;;;;;;;;;;33.19;24.50;96000.03;6245891;28;20011;-66
2022/06/19 10:41:09;;;;;;;;;;;;;;;33.66;24.48;95996.44;6246727;28;19928;-67
2022/06/19 10:44:18;;;;;;;;;;;;;;;35.47;23.25;95996.22;6246715;28;19924;-66
2022/06/19 10:47:24;;;;;;;;;;;;;;;36.61;21.72;95998.91;6246626;28;20402;-66
2022/06/19 10:50:35;;;;;;;;;;;;;;;37.52;21.20;96004.63;6246275;28;19952;-67
2022/06/19 10:53:54;;;;;;;;;;;;;;;37.32;21.06;95993.88;6246226;28;20023;-67
2022/06/19 10:57:08;;;;;;;;;;;;;;;37.88;20.51;95987.72;6246562;28;19921;-66
2022/06/19 11:00:11;;;;;;;;;;;;;;;38.00;20.81;95978.25;6244706;28;19925;-67
2022/06/19 11:06:53;;;;;;;;;;;;;;;37.91;21.13;95967.91;6245303;28;19917;-67
2022/06/19 11:09:56;;;;;;;;;;;;;;;37.58;21.48;95955.19;6244992;28;20031;-67
2022/06/19 11:13:03;;;;;;;;;;;;;;;37.54;21.81;95963.19;6246165;28;20022;-66
2022/06/19 11:16:09;;;;;;;;;;;;;;;37.92;21.55;95964.03;6245973;28;20383;-67
2022/06/19 11:19:29;;;;;;;;;;;;;;;37.73;22.13;95963.19;6246013;28;19921;-67
2022/06/19 11:22:40;;;;;;;;;;;;;;;37.47;22.06;95952.53;6245963;28;19921;-67
2022/06/19 11:25:51;;;;;;;;;;;;;;;37.34;22.43;95946.94;6245953;28;19925;-67
2022/06/19 11:28:55;;;;;;;;;;;;;;;37.51;22.28;95948.13;6246283;28;19920;-67
2022/06/19 11:32:01;;;;;;;;;;;;;;;36.97;22.40;95942.91;6245744;28;20068;-67
2022/06/19 11:35:07;;;;;;;;;;;;;;;36.40;23.02;95939.88;6245557;28;19982;-67
2022/06/19 11:38:12;;;;;;;;;;;;;;;36.06;23.29;95926.19;6245493;28;20400;-67
2022/06/19 11:41:25;;;;;;;;;;;;;;;35.78;23.42;95924.97;6245512;28;19925;-67
2022/06/19 11:44:29;;;;;;;;;;;;;;;35.54;23.34;95922.88;6244496;28;19928;-67
2022/06/19 11:47:38;;;;;;;;;;;;;;;35.51;23.01;95931.66;6245896;28;19920;-67
2022/06/19 11:50:47;;;;;;;;;;;;;;;35.31;23.27;95932.56;6245608;28;19921;-68
2022/06/19 11:53:55;;;;;;;;;;;;;;;34.51;24.13;95932.41;6245681;28;19921;-67
2022/06/19 11:56:56;;;;;;;;;;;;;;;33.51;25.21;95926.25;6245234;28;19927;-68
2022/06/19 12:00:00;;;;;;;;;;;;;;;32.73;26.07;95926.16;6245907;28;19925;-67
2022/06/19 12:03:13;;;;;;;;;;;;;;;32.02;26.49;95915.53;6245663;28;19928;-67
2022/06/19 12:06:16;;;;;;;;;;;;;;;32.06;26.28;95916.63;6245346;28;20428;-67
2022/06/19 12:09:26;;;;;;;;;;;;;;;32.40;25.47;95913.63;6245303;28;20396;-67
2022/06/19 12:12:33;;;;;;;;;;;;;;;33.23;24.51;95923.97;6245336;28;19920;-67
2022/06/19 12:15:35;;;;;;;;;;;;;;;33.94;25.06;95917.91;6245187;28;20288;-67
2022/06/19 12:18:41;;;;;;;;;;;;;;;33.93;25.99;95927.19;6247749;28;19921;-68
2022/06/19 12:21:51;;;;;;;;;;;;;;;33.47;26.95;95922.44;6249784;28;19925;-67
2022/06/19 12:25:12;;;;;;;;;;;;;;;33.84;26.57;95918.72;6250328;28;19921;-68
2022/06/19 12:28:28;;;;;;;;;;;;;;;34.33;25.88;95915.50;6249622;28;19944;-68
2022/06/19 12:31:34;;;;;;;;;;;;;;;34.28;26.00;95915.50;6249369;28;20311;-67
2022/06/19 12:34:44;;;;;;;;;;;;;;;33.19;27.24;95922.88;6249318;28;19921;-67
2022/06/19 12:37:48;;;;;;;;;;;;;;;32.34;28.02;95914.69;6249264;28;20436;-67
2022/06/19 12:40:51;;;;;;;;;;;;;;;31.51;29.45;95913.09;6248949;28;19921;-67
2022/06/19 12:43:52;;;;;;;;;;;;;;;30.89;30.04;95901.72;6249139;28;19927;-67
2022/06/19 12:46:54;;;;;;;;;;;;;;;30.59;30.20;95900.19;6249409;28;19966;-67
2022/06/19 12:49:55;;;;;;;;;;;;;;;30.36;30.09;95912.88;6249374;28;19920;-68
2022/06/19 12:53:02;;;;;;;;;;;;;;;29.85;29.46;95901.16;6249585;28;19928;-67
2022/06/19 12:56:28;;;;;;;;;;;;;;;29.57;28.94;95898.47;6248655;28;19924;-68
2022/06/19 12:59:41;;;;;;;;;;;;;;;29.33;27.70;95901.28;6248781;28;19924;-67
2022/06/19 13:02:43;;;;;;;;;;;;;;;29.19;26.70;95899.91;6249192;28;19928;-68
2022/06/19 13:06:01;;;;;;;;;;;;;;;28.98;26.75;95899.44;6248449;28;19965;-68
2022/06/19 13:09:21;;;;;;;;;;;;;;;29.02;26.53;95900.63;6248655;28;19921;-67
2022/06/19 13:12:46;;;;;;;;;;;;;;;28.87;26.43;95887.63;6248453;28;19972;-68
2022/06/19 13:15:48;;;;;;;;;;;;;;;28.56;26.95;95880.72;6249810;28;19920;-68
2022/06/19 13:19:00;;;;;;;;;;;;;;;28.23;27.38;95877.75;6249053;28;19921;-68
2022/06/19 13:22:04;;;;;;;;;;;;;;;27.73;27.61;95874.34;6248459;28;20002;-68
2022/06/19 13:25:14;;;;;;;;;;;;;;;27.58;28.07;95884.78;6248178;28;20418;-67
2022/06/19 13:28:40;;;;;;;;;;;;;;;27.34;28.36;95883.88;6248307;28;19921;-68
2022/06/19 13:31:47;;;;;;;;;;;;;;;26.90;28.91;95888.56;6246320;28;19921;-67
2022/06/19 13:34:57;;;;;;;;;;;;;;;26.72;29.30;95881.28;6248128;28;20289;-68
2022/06/19 13:38:03;;;;;;;;;;;;;;;26.55;29.73;95885.63;6248348;28;19927;-67
2022/06/19 13:41:19;;;;;;;;;;;;;;;26.42;30.01;95887.41;6247937;28;19921;-68
2022/06/19 13:44:26;;;;;;;;;;;;;;;26.65;29.50;95880.56;6248253;28;20024;-67
2022/06/19 13:47:45;;;;;;;;;;;;;;;26.99;29.34;95878.28;6248358;28;19928;-68
2022/06/19 13:50:49;;;;;;;;;;;;;;;27.48;28.63;95881.81;6246494;28;19956;-68
2022/06/19 13:54:11;;;;;;;;;;;;;;;27.41;28.53;95884.63;6247584;28;20011;-67
2022/06/19 13:57:21;;;;;;;;;;;;;;;27.37;28.86;95877.19;6247814;28;19937;-67
2022/06/19 14:00:22;;;;;;;;;;;;;;;27.39;28.77;95880.50;6247803;28;19920;-68
2022/06/19 14:07:13;;;;;;;;;;;;;;;27.09;28.62;95876.72;6247452;28;19921;-67
2022/06/19 14:10:26;;;;;;;;;;;;;;;27.20;28.76;95877.81;6244962;28;19948;-68
2022/06/19 14:13:30;;;;;;;;;;;;;;;27.41;28.43;95881.91;6246642;28;20343;-68
2022/06/19 14:16:38;;;;;;;;;;;;;;;27.66;28.06;95875.53;6247171;28;19921;-68
2022/06/19 14:19:46;;;;;;;;;;;;;;;27.87;27.50;95879.59;6247514;28;19928;-67
2022/06/19 14:23:01;;;;;;;;;;;;;;;27.74;27.92;95875.19;6246745;28;19921;-67
2022/06/19 14:26:23;;;;;;;;;;;;;;;27.63;28.01;95876.81;6246851;28;19926;-68
2022/06/19 14:29:29;;;;;;;;;;;;;;;27.28;28.47;95885.59;6246984;28;19925;-68
2022/06/19 14:32:57;;;;;;;;;;;;;;;26.85;28.73;95873.06;6246663;28;19931;-67
2022/06/19 14:36:22;;;;;;;;;;;;;;;26.56;29.21;95871.94;6246237;28;19921;-67
2022/06/19 14:39:25;;;;;;;;;;;;;;;26.43;29.54;95878.25;6245657;28;19921;-68
2022/06/19 14:42:26;;;;;;;;;;;;;;;26.43;29.54;95870.16;6246290;28;19936;-67
2022/06/19 14:45:47;;;;;;;;;;;;;;;26.48;29.79;95869.50;6246584;28;20304;-68
2022/06/19 14:48:53;;;;;;;;;;;;;;;26.38;29.95;95861.94;6246594;28;19921;-69
2022/06/19 14:52:17;;;;;;;;;;;;;;;26.34;30.50;95868.81;6246069;28;19927;-67
2022/06/19 14:55:20;;;;;;;;;;;;;;;26.24;30.86;95860.41;6244787;28;20414;-68
2022/06/19 14:58:29;;;;;;;;;;;;;;;26.15;31.14;95859.03;6246113;28;19925;-68
2022/06/19 15:01:34;;;;;;;;;;;;;;;26.04;31.53;95867.84;6245888;28;19921;-68
2022/06/19 15:04:35;;;;;;;;;;;;;;;26.01;32.03;95868.31;6246001;28;19925;-68
2022/06/19 15:07:43;;;;;;;;;;;;;;;25.69;32.30;95861.06;6246161;28;19979;-67
2022/06/19 15:10:54;;;;;;;;;;;;;;;25.30;32.64;95864.84;6245933;28;20055;-67
2022/06/19 15:14:09;;;;;;;;;;;;;;;25.16;32.91;95872.16;6246020;28;19925;-67
2022/06/19 15:17:39;;;;;;;;;;;;;;;25.05;32.70;95864.75;6245738;28;19921;-68
2022/06/19 15:20:46;;;;;;;;;;;;;;;24.82;33.21;95873.34;6243554;28;19928;-68
2022/06/19 15:23:52;;;;;;;;;;;;;;;24.61;33.36;95883.34;6245499;28;19928;-68
2022/06/19 15:27:16;;;;;;;;;;;;;;;24.50;33.48;95893.94;6245901;28;19921;-68
2022/06/19 15:30:29;;;;;;;;;;;;;;;24.35;33.73;95894.16;6245080;28;19921;-68
2022/06/19 15:33:47;;;;;;;;;;;;;;;24.43;33.89;95899.34;6245795;28;20388;-68
2022/06/19 15:36:51;;;;;;;;;;;;;;;24.53;33.79;95899.72;6245733;28;20456;-67
2022/06/19 15:40:12;;;;;;;;;;;;;;;24.56;33.75;95896.59;6245384;28;20400;-67
2022/06/19 15:43:16;;;;;;;;;;;;;;;24.53;34.00;95905.09;6245892;28;19921;-68
2022/06/19 15:46:19;;;;;;;;;;;;;;;24.43;34.05;95902.03;6245514;28;19968;-67
2022/06/19 15:49:23;;;;;;;;;;;;;;;24.35;34.45;95894.16;6245536;28;19971;-67
2022/06/19 15:52:30;;;;;;;;;;;;;;;24.24;34.40;95902.84;6246072;28;20028;-67
2022/06/19 15:55:35;;;;;;;;;;;;;;;24.13;34.44;95896.25;6251134;28;19928;-68
2022/06/19 15:58:36;;;;;;;;;;;;;;;24.10;34.56;95899.34;6250269;28;20288;-71
2022/06/19 16:01:42;;;;;;;;;;;;;;;23.92;34.80;95902.63;6250583;28;19921;-68
2022/06/19 16:04:46;;;;;;;;;;;;;;;23.77;35.32;95915.44;6250786;28;19928;-68
2022/06/19 16:07:51;;;;;;;;;;;;;;;23.57;35.78;95910.84;6250540;28;20030;-67
2022/06/19 16:10:56;;;;;;;;;;;;;;;23.27;36.18;95919.28;6249002;28;19921;-67
2022/06/19 16:14:01;;;;;;;;;;;;;;;23.09;36.61;95918.97;6250123;28;19921;-70
2022/06/19 16:17:04;;;;;;;;;;;;;;;22.84;36.95;95916.81;6248687;28;20406;-67
2022/06/19 16:20:11;;;;;;;;;;;;;;;22.67;37.41;95915.47;6250506;28;19931;-68
2022/06/19 16:23:14;;;;;;;;;;;;;;;22.77;37.41;95923.97;6249880;28;20014;-68
2022/06/19 16:26:23;;;;;;;;;;;;;;;22.63;37.90;95919.59;6249750;28;19921;-68
2022/06/19 16:29:27;;;;;;;;;;;;;;;22.43;37.99;95924.81;6249767;28;19921;-68